sensor_id;sensor_type;location;lat;lon;timestamp;temperature;humidity
4908;DHT22;64375;51.540;7.364;2023-03-30T00:02:13;18.00;90.40
4908;DHT22;64375;51.540;7.364;2023-03-30T00:04:50;17.90;90.30
4908;DHT22;64375;51.540;7.364;2023-03-30T00:07:19;18.00;90.30
4908;DHT22;64375;51.540;7.364;2023-03-30T00:09:47;17.90;90.20
4908;DHT22;64375;51.540;7.364;2023-03-30T00:12:15;17.90;90.10
4908;DHT22;64375;51.540;7.364;2023-03-30T00:14:49;17.90;90.20
4908;DHT22;64375;51.540;7.364;2023-03-30T00:17:17;17.90;90.20
4908;DHT22;64375;51.540;7.364;2023-03-30T00:19:45;17.90;90.20
4908;DHT22;64375;51.540;7.364;2023-03-30T00:22:13;17.90;90.20
4908;DHT22;64375;51.540;7.364;2023-03-30T00:24:42;17.90;90.20
4908;DHT22;64375;51.540;7.364;2023-03-30T00:27:10;17.90;90.20
4908;DHT22;64375;51.540;7.364;2023-03-30T00:29:41;17.90;90.20
4908;DHT22;64375;51.540;7.364;2023-03-30T00:32:09;17.90;90.20
4908;DHT22;64375;51.540;7.364;2023-03-30T00:34:40;17.90;90.30
4908;DHT22;64375;51.540;7.364;2023-03-30T00:37:08;17.90;90.30
4908;DHT22;64375;51.540;7.364;2023-03-30T00:39:37;17.90;90.30
4908;DHT22;64375;51.540;7.364;2023-03-30T00:42:08;17.90;90.20
4908;DHT22;64375;51.540;7.364;2023-03-30T00:45:06;17.70;90.30
4908;DHT22;64375;51.540;7.364;2023-03-30T00:47:39;17.70;90.40
4908;DHT22;64375;51.540;7.364;2023-03-30T00:50:12;17.80;90.30
4908;DHT22;64375;51.540;7.364;2023-03-30T00:52:51;17.80;90.20
4908;DHT22;64375;51.540;7.364;2023-03-30T00:55:23;17.80;90.20
4908;DHT22;64375;51.540;7.364;2023-03-30T00:57:54;17.80;90.20
4908;DHT22;64375;51.540;7.364;2023-03-30T01:00:22;17.50;89.60
4908;DHT22;64375;51.540;7.364;2023-03-30T01:02:56;17.40;90.50
4908;DHT22;64375;51.540;7.364;2023-03-30T01:05:26;17.30;90.60
4908;DHT22;64375;51.540;7.364;2023-03-30T01:08:06;17.20;90.80
4908;DHT22;64375;51.540;7.364;2023-03-30T01:10:45;17.00;90.80
4908;DHT22;64375;51.540;7.364;2023-03-30T01:13:26;17.00;91.30
4908;DHT22;64375;51.540;7.364;2023-03-30T01:16:05;17.10;91.20
4908;DHT22;64375;51.540;7.364;2023-03-30T01:18:56;17.00;91.00
4908;DHT22;64375;51.540;7.364;2023-03-30T01:22:12;16.90;90.70
4908;DHT22;64375;51.540;7.364;2023-03-30T01:25:11;16.60;89.00
4908;DHT22;64375;51.540;7.364;2023-03-30T01:31:16;16.40;90.40
4908;DHT22;64375;51.540;7.364;2023-03-30T01:37:19;16.90;91.10
4908;DHT22;64375;51.540;7.364;2023-03-30T01:39:56;16.70;91.30
4908;DHT22;64375;51.540;7.364;2023-03-30T01:42:36;16.60;90.90
4908;DHT22;64375;51.540;7.364;2023-03-30T01:45:11;16.60;91.10
4908;DHT22;64375;51.540;7.364;2023-03-30T01:47:54;16.50;91.30
4908;DHT22;64375;51.540;7.364;2023-03-30T01:50:28;16.70;91.60
4908;DHT22;64375;51.540;7.364;2023-03-30T01:53:09;16.70;91.70
4908;DHT22;64375;51.540;7.364;2023-03-30T01:55:46;17.00;91.30
4908;DHT22;64375;51.540;7.364;2023-03-30T01:58:19;17.20;91.00
4908;DHT22;64375;51.540;7.364;2023-03-30T02:00:59;17.40;90.80
4908;DHT22;64375;51.540;7.364;2023-03-30T02:03:30;17.40;90.50
4908;DHT22;64375;51.540;7.364;2023-03-30T02:06:02;17.50;90.50
4908;DHT22;64375;51.540;7.364;2023-03-30T02:08:35;17.50;90.40
4908;DHT22;64375;51.540;7.364;2023-03-30T02:11:11;17.50;90.40
4908;DHT22;64375;51.540;7.364;2023-03-30T02:13:40;17.50;90.30
4908;DHT22;64375;51.540;7.364;2023-03-30T02:16:13;17.40;90.20
4908;DHT22;64375;51.540;7.364;2023-03-30T02:18:57;17.40;90.20
4908;DHT22;64375;51.540;7.364;2023-03-30T02:21:31;17.40;90.40
4908;DHT22;64375;51.540;7.364;2023-03-30T02:24:02;17.50;90.40
4908;DHT22;64375;51.540;7.364;2023-03-30T02:26:38;17.40;90.30
4908;DHT22;64375;51.540;7.364;2023-03-30T02:29:09;17.50;90.20
4908;DHT22;64375;51.540;7.364;2023-03-30T02:31:38;17.40;90.30
4908;DHT22;64375;51.540;7.364;2023-03-30T02:34:10;17.40;90.20
4908;DHT22;64375;51.540;7.364;2023-03-30T02:37:10;17.40;90.20
4908;DHT22;64375;51.540;7.364;2023-03-30T02:40:00;17.40;90.20
4908;DHT22;64375;51.540;7.364;2023-03-30T02:42:56;17.40;90.10
4908;DHT22;64375;51.540;7.364;2023-03-30T02:45:43;17.40;90.20
4908;DHT22;64375;51.540;7.364;2023-03-30T02:48:32;17.30;90.10
4908;DHT22;64375;51.540;7.364;2023-03-30T02:51:23;17.30;90.10
4908;DHT22;64375;51.540;7.364;2023-03-30T02:54:10;17.30;90.10
4908;DHT22;64375;51.540;7.364;2023-03-30T02:56:45;17.40;90.20
4908;DHT22;64375;51.540;7.364;2023-03-30T02:59:18;17.40;90.20
4908;DHT22;64375;51.540;7.364;2023-03-30T03:01:59;17.30;90.20
4908;DHT22;64375;51.540;7.364;2023-03-30T03:04:39;17.40;90.20
4908;DHT22;64375;51.540;7.364;2023-03-30T03:07:12;17.40;90.20
4908;DHT22;64375;51.540;7.364;2023-03-30T03:09:43;17.30;90.30
4908;DHT22;64375;51.540;7.364;2023-03-30T03:12:24;17.40;90.40
4908;DHT22;64375;51.540;7.364;2023-03-30T03:14:53;17.40;90.60
4908;DHT22;64375;51.540;7.364;2023-03-30T03:17:21;17.40;90.20
4908;DHT22;64375;51.540;7.364;2023-03-30T03:19:50;17.40;90.20
4908;DHT22;64375;51.540;7.364;2023-03-30T03:22:27;17.50;90.20
4908;DHT22;64375;51.540;7.364;2023-03-30T03:24:55;17.50;90.10
4908;DHT22;64375;51.540;7.364;2023-03-30T03:27:29;17.40;90.00
4908;DHT22;64375;51.540;7.364;2023-03-30T03:29:58;17.40;89.90
4908;DHT22;64375;51.540;7.364;2023-03-30T03:32:26;17.40;90.10
4908;DHT22;64375;51.540;7.364;2023-03-30T03:34:57;17.40;90.10
4908;DHT22;64375;51.540;7.364;2023-03-30T03:37:25;17.40;90.00
4908;DHT22;64375;51.540;7.364;2023-03-30T03:39:56;17.40;90.10
4908;DHT22;64375;51.540;7.364;2023-03-30T03:42:23;17.40;90.20
4908;DHT22;64375;51.540;7.364;2023-03-30T03:44:51;17.40;90.20
4908;DHT22;64375;51.540;7.364;2023-03-30T03:47:21;17.40;90.10
4908;DHT22;64375;51.540;7.364;2023-03-30T03:49:55;17.40;90.20
4908;DHT22;64375;51.540;7.364;2023-03-30T03:52:28;17.40;90.30
4908;DHT22;64375;51.540;7.364;2023-03-30T03:54:59;17.40;90.20
4908;DHT22;64375;51.540;7.364;2023-03-30T03:57:33;17.50;90.20
4908;DHT22;64375;51.540;7.364;2023-03-30T04:00:14;17.40;89.60
4908;DHT22;64375;51.540;7.364;2023-03-30T04:02:47;17.40;90.10
4908;DHT22;64375;51.540;7.364;2023-03-30T04:05:15;17.50;90.10
4908;DHT22;64375;51.540;7.364;2023-03-30T04:07:46;17.40;90.20
4908;DHT22;64375;51.540;7.364;2023-03-30T04:10:19;17.40;90.20
4908;DHT22;64375;51.540;7.364;2023-03-30T04:12:47;17.40;89.90
4908;DHT22;64375;51.540;7.364;2023-03-30T04:15:29;17.40;90.10
4908;DHT22;64375;51.540;7.364;2023-03-30T04:18:04;17.30;90.00
4908;DHT22;64375;51.540;7.364;2023-03-30T04:20:37;17.40;90.30
4908;DHT22;64375;51.540;7.364;2023-03-30T04:23:04;17.40;90.80
4908;DHT22;64375;51.540;7.364;2023-03-30T04:25:35;17.50;90.70
4908;DHT22;64375;51.540;7.364;2023-03-30T04:28:11;17.40;90.70
4908;DHT22;64375;51.540;7.364;2023-03-30T04:30:40;17.50;90.80
4908;DHT22;64375;51.540;7.364;2023-03-30T04:33:18;17.60;90.70
4908;DHT22;64375;51.540;7.364;2023-03-30T04:35:46;17.70;90.50
4908;DHT22;64375;51.540;7.364;2023-03-30T04:38:33;17.70;90.50
4908;DHT22;64375;51.540;7.364;2023-03-30T04:41:14;17.70;90.60
4908;DHT22;64375;51.540;7.364;2023-03-30T04:43:53;17.80;90.50
4908;DHT22;64375;51.540;7.364;2023-03-30T04:46:29;17.80;90.40
4908;DHT22;64375;51.540;7.364;2023-03-30T04:49:05;17.90;90.10
4908;DHT22;64375;51.540;7.364;2023-03-30T04:51:36;17.70;87.70
4908;DHT22;64375;51.540;7.364;2023-03-30T04:54:11;17.70;90.40
4908;DHT22;64375;51.540;7.364;2023-03-30T04:56:45;17.80;90.50
4908;DHT22;64375;51.540;7.364;2023-03-30T04:59:13;17.80;90.50
4908;DHT22;64375;51.540;7.364;2023-03-30T05:01:41;18.00;90.30
4908;DHT22;64375;51.540;7.364;2023-03-30T05:04:17;17.90;89.90
4908;DHT22;64375;51.540;7.364;2023-03-30T05:06:57;18.00;90.30
4908;DHT22;64375;51.540;7.364;2023-03-30T05:09:31;17.90;89.30
4908;DHT22;64375;51.540;7.364;2023-03-30T05:11:59;17.80;87.40
4908;DHT22;64375;51.540;7.364;2023-03-30T05:14:36;17.60;90.20
4908;DHT22;64375;51.540;7.364;2023-03-30T05:17:07;17.60;90.30
4908;DHT22;64375;51.540;7.364;2023-03-30T05:19:39;17.60;90.60
4908;DHT22;64375;51.540;7.364;2023-03-30T05:22:07;17.60;89.60
4908;DHT22;64375;51.540;7.364;2023-03-30T05:24:35;17.50;90.80
4908;DHT22;64375;51.540;7.364;2023-03-30T05:27:03;17.60;91.00
4908;DHT22;64375;51.540;7.364;2023-03-30T05:29:32;17.70;90.90
4908;DHT22;64375;51.540;7.364;2023-03-30T05:32:03;17.80;90.60
4908;DHT22;64375;51.540;7.364;2023-03-30T05:34:31;17.80;90.60
4908;DHT22;64375;51.540;7.364;2023-03-30T05:37:03;18.00;90.60
4908;DHT22;64375;51.540;7.364;2023-03-30T05:39:37;18.20;90.40
4908;DHT22;64375;51.540;7.364;2023-03-30T05:42:05;18.30;90.20
4908;DHT22;64375;51.540;7.364;2023-03-30T05:44:36;18.40;89.90
4908;DHT22;64375;51.540;7.364;2023-03-30T05:47:04;18.50;89.50
4908;DHT22;64375;51.540;7.364;2023-03-30T05:49:32;18.60;89.00
4908;DHT22;64375;51.540;7.364;2023-03-30T05:52:00;18.60;89.00
4908;DHT22;64375;51.540;7.364;2023-03-30T05:54:30;18.60;88.60
4908;DHT22;64375;51.540;7.364;2023-03-30T05:56:58;18.60;88.90
4908;DHT22;64375;51.540;7.364;2023-03-30T05:59:26;18.60;88.80
4908;DHT22;64375;51.540;7.364;2023-03-30T06:02:01;18.70;88.80
4908;DHT22;64375;51.540;7.364;2023-03-30T06:04:29;18.70;88.90
4908;DHT22;64375;51.540;7.364;2023-03-30T06:06:57;18.70;88.90
4908;DHT22;64375;51.540;7.364;2023-03-30T06:09:35;18.50;87.60
4908;DHT22;64375;51.540;7.364;2023-03-30T06:12:04;18.50;87.70
4908;DHT22;64375;51.540;7.364;2023-03-30T06:14:32;18.60;88.10
4908;DHT22;64375;51.540;7.364;2023-03-30T06:17:00;18.60;88.10
4908;DHT22;64375;51.540;7.364;2023-03-30T06:19:37;18.60;88.20
4908;DHT22;64375;51.540;7.364;2023-03-30T06:22:05;18.70;88.00
4908;DHT22;64375;51.540;7.364;2023-03-30T06:24:33;18.60;87.30
4908;DHT22;64375;51.540;7.364;2023-03-30T06:27:04;18.50;88.60
4908;DHT22;64375;51.540;7.364;2023-03-30T06:29:33;18.50;88.50
4908;DHT22;64375;51.540;7.364;2023-03-30T06:32:01;18.50;88.40
4908;DHT22;64375;51.540;7.364;2023-03-30T06:34:33;18.50;88.50
4908;DHT22;64375;51.540;7.364;2023-03-30T06:37:07;18.60;87.90
4908;DHT22;64375;51.540;7.364;2023-03-30T06:39:37;18.60;89.00
4908;DHT22;64375;51.540;7.364;2023-03-30T06:42:07;18.60;89.10
4908;DHT22;64375;51.540;7.364;2023-03-30T06:44:34;18.60;89.10
4908;DHT22;64375;51.540;7.364;2023-03-30T06:47:05;18.60;89.60
4908;DHT22;64375;51.540;7.364;2023-03-30T06:49:35;18.60;89.60
4908;DHT22;64375;51.540;7.364;2023-03-30T06:52:06;18.60;89.40
4908;DHT22;64375;51.540;7.364;2023-03-30T06:54:34;18.60;89.40
4908;DHT22;64375;51.540;7.364;2023-03-30T06:57:09;18.60;89.10
4908;DHT22;64375;51.540;7.364;2023-03-30T06:59:43;18.70;88.90
4908;DHT22;64375;51.540;7.364;2023-03-30T07:02:12;18.60;89.30
4908;DHT22;64375;51.540;7.364;2023-03-30T07:04:40;18.60;89.20
4908;DHT22;64375;51.540;7.364;2023-03-30T07:07:13;18.50;88.30
4908;DHT22;64375;51.540;7.364;2023-03-30T07:09:50;18.40;87.90
4908;DHT22;64375;51.540;7.364;2023-03-30T07:12:22;18.20;87.10
4908;DHT22;64375;51.540;7.364;2023-03-30T07:14:50;18.20;87.60
4908;DHT22;64375;51.540;7.364;2023-03-30T07:17:19;18.10;87.80
4908;DHT22;64375;51.540;7.364;2023-03-30T07:19:50;17.90;89.00
4908;DHT22;64375;51.540;7.364;2023-03-30T07:22:18;18.00;89.10
4908;DHT22;64375;51.540;7.364;2023-03-30T07:24:46;18.10;89.40
4908;DHT22;64375;51.540;7.364;2023-03-30T07:27:14;18.20;89.00
4908;DHT22;64375;51.540;7.364;2023-03-30T07:29:44;18.30;89.20
4908;DHT22;64375;51.540;7.364;2023-03-30T07:32:12;18.30;88.80
4908;DHT22;64375;51.540;7.364;2023-03-30T07:34:40;18.50;89.20
4908;DHT22;64375;51.540;7.364;2023-03-30T07:37:08;18.50;89.10
4908;DHT22;64375;51.540;7.364;2023-03-30T07:39:36;18.50;89.10
4908;DHT22;64375;51.540;7.364;2023-03-30T07:42:04;18.60;89.20
4908;DHT22;64375;51.540;7.364;2023-03-30T07:44:32;18.60;89.00
4908;DHT22;64375;51.540;7.364;2023-03-30T07:47:02;18.60;89.00
4908;DHT22;64375;51.540;7.364;2023-03-30T07:49:32;18.60;89.00
4908;DHT22;64375;51.540;7.364;2023-03-30T07:52:00;18.70;88.50
4908;DHT22;64375;51.540;7.364;2023-03-30T07:54:31;18.70;88.70
4908;DHT22;64375;51.540;7.364;2023-03-30T07:56:59;18.70;88.20
4908;DHT22;64375;51.540;7.364;2023-03-30T07:59:28;18.70;88.60
4908;DHT22;64375;51.540;7.364;2023-03-30T08:02:05;18.70;88.40
4908;DHT22;64375;51.540;7.364;2023-03-30T08:04:39;18.60;88.80
4908;DHT22;64375;51.540;7.364;2023-03-30T08:07:12;18.30;87.70
4908;DHT22;64375;51.540;7.364;2023-03-30T08:09:40;18.10;87.50
4908;DHT22;64375;51.540;7.364;2023-03-30T08:12:14;17.80;87.70
4908;DHT22;64375;51.540;7.364;2023-03-30T08:14:42;17.60;88.40
4908;DHT22;64375;51.540;7.364;2023-03-30T08:17:11;17.60;89.20
4908;DHT22;64375;51.540;7.364;2023-03-30T08:19:40;17.60;90.00
4908;DHT22;64375;51.540;7.364;2023-03-30T08:22:07;17.70;90.00
4908;DHT22;64375;51.540;7.364;2023-03-30T08:24:36;17.90;89.80
4908;DHT22;64375;51.540;7.364;2023-03-30T08:27:04;18.00;89.70
4908;DHT22;64375;51.540;7.364;2023-03-30T08:29:32;18.20;90.30
4908;DHT22;64375;51.540;7.364;2023-03-30T08:32:04;18.30;90.00
4908;DHT22;64375;51.540;7.364;2023-03-30T08:34:34;18.30;89.90
4908;DHT22;64375;51.540;7.364;2023-03-30T08:37:03;18.30;90.40
4908;DHT22;64375;51.540;7.364;2023-03-30T08:39:31;18.30;90.30
4908;DHT22;64375;51.540;7.364;2023-03-30T08:42:11;18.40;90.00
4908;DHT22;64375;51.540;7.364;2023-03-30T08:44:47;18.40;90.10
4908;DHT22;64375;51.540;7.364;2023-03-30T08:47:26;18.50;90.00
4908;DHT22;64375;51.540;7.364;2023-03-30T08:50:10;18.60;90.00
4908;DHT22;64375;51.540;7.364;2023-03-30T08:52:41;18.70;90.00
4908;DHT22;64375;51.540;7.364;2023-03-30T08:55:18;18.80;89.80
4908;DHT22;64375;51.540;7.364;2023-03-30T08:57:52;18.80;89.80
4908;DHT22;64375;51.540;7.364;2023-03-30T09:00:29;18.70;90.00
4908;DHT22;64375;51.540;7.364;2023-03-30T09:03:13;18.80;90.00
4908;DHT22;64375;51.540;7.364;2023-03-30T09:05:48;18.80;90.00
4908;DHT22;64375;51.540;7.364;2023-03-30T09:08:26;18.80;90.00
4908;DHT22;64375;51.540;7.364;2023-03-30T09:10:57;18.80;90.10
4908;DHT22;64375;51.540;7.364;2023-03-30T09:13:30;18.80;90.00
4908;DHT22;64375;51.540;7.364;2023-03-30T09:16:04;18.80;90.10
4908;DHT22;64375;51.540;7.364;2023-03-30T09:18:37;18.80;90.20
4908;DHT22;64375;51.540;7.364;2023-03-30T09:21:17;18.90;90.20
4908;DHT22;64375;51.540;7.364;2023-03-30T09:23:48;19.00;90.00
4908;DHT22;64375;51.540;7.364;2023-03-30T09:26:22;18.90;90.10
4908;DHT22;64375;51.540;7.364;2023-03-30T09:29:00;19.00;90.10
4908;DHT22;64375;51.540;7.364;2023-03-30T09:31:43;19.10;90.10
4908;DHT22;64375;51.540;7.364;2023-03-30T09:34:24;19.10;90.00
4908;DHT22;64375;51.540;7.364;2023-03-30T09:36:56;19.10;90.00
4908;DHT22;64375;51.540;7.364;2023-03-30T09:39:28;19.10;89.90
4908;DHT22;64375;51.540;7.364;2023-03-30T09:42:11;19.10;89.80
4908;DHT22;64375;51.540;7.364;2023-03-30T09:44:46;19.10;89.70
4908;DHT22;64375;51.540;7.364;2023-03-30T09:47:27;19.00;89.90
4908;DHT22;64375;51.540;7.364;2023-03-30T09:49:57;19.20;90.00
4908;DHT22;64375;51.540;7.364;2023-03-30T09:52:28;19.20;90.00
4908;DHT22;64375;51.540;7.364;2023-03-30T09:55:15;19.30;90.10
4908;DHT22;64375;51.540;7.364;2023-03-30T09:57:51;19.40;90.20
4908;DHT22;64375;51.540;7.364;2023-03-30T10:00:25;19.50;90.00
4908;DHT22;64375;51.540;7.364;2023-03-30T10:02:56;19.70;89.80
4908;DHT22;64375;51.540;7.364;2023-03-30T10:05:31;19.70;89.00
4908;DHT22;64375;51.540;7.364;2023-03-30T10:08:03;19.50;88.40
4908;DHT22;64375;51.540;7.364;2023-03-30T10:10:35;19.60;89.00
4908;DHT22;64375;51.540;7.364;2023-03-30T10:13:13;19.60;86.70
4908;DHT22;64375;51.540;7.364;2023-03-30T10:15:45;19.70;89.10
4908;DHT22;64375;51.540;7.364;2023-03-30T10:18:23;19.70;88.40
4908;DHT22;64375;51.540;7.364;2023-03-30T10:20:59;19.80;88.70
4908;DHT22;64375;51.540;7.364;2023-03-30T10:23:37;19.80;85.50
4908;DHT22;64375;51.540;7.364;2023-03-30T10:26:11;19.80;88.20
4908;DHT22;64375;51.540;7.364;2023-03-30T10:28:53;19.90;88.10
4908;DHT22;64375;51.540;7.364;2023-03-30T10:31:25;20.00;88.00
4908;DHT22;64375;51.540;7.364;2023-03-30T10:33:56;20.00;87.60
4908;DHT22;64375;51.540;7.364;2023-03-30T10:36:33;20.00;87.40
4908;DHT22;64375;51.540;7.364;2023-03-30T10:39:06;20.00;87.30
4908;DHT22;64375;51.540;7.364;2023-03-30T10:41:41;19.90;87.50
4908;DHT22;64375;51.540;7.364;2023-03-30T10:44:18;19.90;88.10
4908;DHT22;64375;51.540;7.364;2023-03-30T10:46:52;20.00;87.50
4908;DHT22;64375;51.540;7.364;2023-03-30T10:49:37;20.00;87.50
4908;DHT22;64375;51.540;7.364;2023-03-30T10:52:15;20.00;87.60
4908;DHT22;64375;51.540;7.364;2023-03-30T10:55:10;20.00;87.50
4908;DHT22;64375;51.540;7.364;2023-03-30T10:57:48;20.10;87.70
4908;DHT22;64375;51.540;7.364;2023-03-30T11:00:47;20.10;87.50
4908;DHT22;64375;51.540;7.364;2023-03-30T11:03:23;20.10;87.30
4908;DHT22;64375;51.540;7.364;2023-03-30T11:06:02;20.10;87.40
4908;DHT22;64375;51.540;7.364;2023-03-30T11:08:38;20.10;87.30
4908;DHT22;64375;51.540;7.364;2023-03-30T11:11:12;20.10;87.20
4908;DHT22;64375;51.540;7.364;2023-03-30T11:13:44;20.10;87.30
4908;DHT22;64375;51.540;7.364;2023-03-30T11:16:19;20.10;87.40
4908;DHT22;64375;51.540;7.364;2023-03-30T11:18:53;20.00;87.30
4908;DHT22;64375;51.540;7.364;2023-03-30T11:21:29;20.00;88.00
4908;DHT22;64375;51.540;7.364;2023-03-30T11:24:04;20.00;88.00
4908;DHT22;64375;51.540;7.364;2023-03-30T11:26:42;20.10;87.80
4908;DHT22;64375;51.540;7.364;2023-03-30T11:29:34;20.10;87.50
4908;DHT22;64375;51.540;7.364;2023-03-30T11:32:19;20.20;87.60
4908;DHT22;64375;51.540;7.364;2023-03-30T11:35:00;20.10;87.40
4908;DHT22;64375;51.540;7.364;2023-03-30T11:37:43;20.10;87.40
4908;DHT22;64375;51.540;7.364;2023-03-30T11:40:21;20.10;87.50
4908;DHT22;64375;51.540;7.364;2023-03-30T11:42:57;20.10;87.20
4908;DHT22;64375;51.540;7.364;2023-03-30T11:45:59;20.20;86.90
4908;DHT22;64375;51.540;7.364;2023-03-30T11:51:52;20.10;87.30
4908;DHT22;64375;51.540;7.364;2023-03-30T11:57:34;20.10;87.50
4908;DHT22;64375;51.540;7.364;2023-03-30T12:00:20;19.90;87.90
4908;DHT22;64375;51.540;7.364;2023-03-30T12:03:03;20.00;87.90
4908;DHT22;64375;51.540;7.364;2023-03-30T12:05:42;19.80;85.40
4908;DHT22;64375;51.540;7.364;2023-03-30T12:08:24;19.60;86.50
4908;DHT22;64375;51.540;7.364;2023-03-30T12:11:03;19.60;86.70
4908;DHT22;64375;51.540;7.364;2023-03-30T12:13:32;19.60;86.20
4908;DHT22;64375;51.540;7.364;2023-03-30T12:16:26;19.70;87.20
4908;DHT22;64375;51.540;7.364;2023-03-30T12:19:09;19.70;87.30
4908;DHT22;64375;51.540;7.364;2023-03-30T12:21:42;19.90;87.20
4908;DHT22;64375;51.540;7.364;2023-03-30T12:24:20;20.00;86.40
4908;DHT22;64375;51.540;7.364;2023-03-30T12:26:50;20.00;86.70
4908;DHT22;64375;51.540;7.364;2023-03-30T12:29:48;20.00;87.10
4908;DHT22;64375;51.540;7.364;2023-03-30T12:32:28;20.10;88.00
4908;DHT22;64375;51.540;7.364;2023-03-30T12:34:59;20.10;87.50
4908;DHT22;64375;51.540;7.364;2023-03-30T12:37:32;19.90;87.60
4908;DHT22;64375;51.540;7.364;2023-03-30T12:40:06;20.10;87.80
4908;DHT22;64375;51.540;7.364;2023-03-30T12:43:09;20.20;87.30
4908;DHT22;64375;51.540;7.364;2023-03-30T12:45:47;20.20;86.40
4908;DHT22;64375;51.540;7.364;2023-03-30T12:48:35;20.30;86.90
4908;DHT22;64375;51.540;7.364;2023-03-30T12:51:13;20.40;86.50
4908;DHT22;64375;51.540;7.364;2023-03-30T12:56:50;20.10;88.50
4908;DHT22;64375;51.540;7.364;2023-03-30T13:00:07;20.10;88.20
4908;DHT22;64375;51.540;7.364;2023-03-30T13:03:01;20.20;88.40
4908;DHT22;64375;51.540;7.364;2023-03-30T13:05:37;20.20;88.60
4908;DHT22;64375;51.540;7.364;2023-03-30T13:08:19;20.20;88.70
4908;DHT22;64375;51.540;7.364;2023-03-30T13:11:05;20.30;88.20
4908;DHT22;64375;51.540;7.364;2023-03-30T13:13:55;20.40;87.90
4908;DHT22;64375;51.540;7.364;2023-03-30T13:16:46;20.40;87.90
4908;DHT22;64375;51.540;7.364;2023-03-30T13:19:25;20.30;88.00
4908;DHT22;64375;51.540;7.364;2023-03-30T13:22:03;20.20;86.60
4908;DHT22;64375;51.540;7.364;2023-03-30T13:24:45;20.20;88.20
4908;DHT22;64375;51.540;7.364;2023-03-30T13:27:29;20.20;88.30
4908;DHT22;64375;51.540;7.364;2023-03-30T13:29:59;20.10;88.90
4908;DHT22;64375;51.540;7.364;2023-03-30T13:32:52;20.10;88.20
4908;DHT22;64375;51.540;7.364;2023-03-30T13:35:52;20.30;88.20
4908;DHT22;64375;51.540;7.364;2023-03-30T13:38:37;20.40;87.90
4908;DHT22;64375;51.540;7.364;2023-03-30T13:41:22;20.40;87.90
4908;DHT22;64375;51.540;7.364;2023-03-30T13:44:04;20.40;87.70
4908;DHT22;64375;51.540;7.364;2023-03-30T13:46:42;20.50;87.70
4908;DHT22;64375;51.540;7.364;2023-03-30T13:49:28;20.50;87.60
4908;DHT22;64375;51.540;7.364;2023-03-30T13:52:02;20.50;87.60
4908;DHT22;64375;51.540;7.364;2023-03-30T13:54:33;20.50;87.70
4908;DHT22;64375;51.540;7.364;2023-03-30T13:57:06;20.50;87.80
4908;DHT22;64375;51.540;7.364;2023-03-30T13:59:41;20.50;87.80
4908;DHT22;64375;51.540;7.364;2023-03-30T14:02:14;20.50;87.60
4908;DHT22;64375;51.540;7.364;2023-03-30T14:04:45;20.60;87.20
4908;DHT22;64375;51.540;7.364;2023-03-30T14:07:22;20.50;88.00
4908;DHT22;64375;51.540;7.364;2023-03-30T14:10:14;20.50;87.70
4908;DHT22;64375;51.540;7.364;2023-03-30T14:12:51;20.50;87.80
4908;DHT22;64375;51.540;7.364;2023-03-30T14:15:22;20.60;87.80
4908;DHT22;64375;51.540;7.364;2023-03-30T14:17:57;20.60;87.50
4908;DHT22;64375;51.540;7.364;2023-03-30T14:20:42;20.60;88.00
4908;DHT22;64375;51.540;7.364;2023-03-30T14:23:18;20.60;87.90
4908;DHT22;64375;51.540;7.364;2023-03-30T14:25:52;20.70;87.80
4908;DHT22;64375;51.540;7.364;2023-03-30T14:28:26;20.60;87.70
4908;DHT22;64375;51.540;7.364;2023-03-30T14:30:59;20.60;87.80
4908;DHT22;64375;51.540;7.364;2023-03-30T14:33:30;20.60;87.50
4908;DHT22;64375;51.540;7.364;2023-03-30T14:36:00;20.70;87.70
4908;DHT22;64375;51.540;7.364;2023-03-30T14:38:31;20.60;87.30
4908;DHT22;64375;51.540;7.364;2023-03-30T14:41:08;20.60;87.80
4908;DHT22;64375;51.540;7.364;2023-03-30T14:43:38;20.60;87.80
4908;DHT22;64375;51.540;7.364;2023-03-30T14:46:09;20.40;87.70
4908;DHT22;64375;51.540;7.364;2023-03-30T14:48:43;20.60;87.50
4908;DHT22;64375;51.540;7.364;2023-03-30T14:51:24;20.60;87.30
4908;DHT22;64375;51.540;7.364;2023-03-30T14:53:57;20.50;87.80
4908;DHT22;64375;51.540;7.364;2023-03-30T14:56:28;20.50;88.00
4908;DHT22;64375;51.540;7.364;2023-03-30T14:58:57;20.60;87.60
4908;DHT22;64375;51.540;7.364;2023-03-30T15:01:29;20.60;87.30
4908;DHT22;64375;51.540;7.364;2023-03-30T15:04:00;20.60;87.20
4908;DHT22;64375;51.540;7.364;2023-03-30T15:06:36;20.70;87.20
4908;DHT22;64375;51.540;7.364;2023-03-30T15:09:12;20.70;87.00
4908;DHT22;64375;51.540;7.364;2023-03-30T15:11:49;20.60;86.50
4908;DHT22;64375;51.540;7.364;2023-03-30T15:14:20;20.60;87.20
4908;DHT22;64375;51.540;7.364;2023-03-30T15:16:50;20.60;87.00
4908;DHT22;64375;51.540;7.364;2023-03-30T15:19:25;20.60;87.20
4908;DHT22;64375;51.540;7.364;2023-03-30T15:22:06;20.60;86.90
4908;DHT22;64375;51.540;7.364;2023-03-30T15:24:37;20.60;86.80
4908;DHT22;64375;51.540;7.364;2023-03-30T15:27:10;20.30;85.90
4908;DHT22;64375;51.540;7.364;2023-03-30T15:29:40;19.70;86.60
4908;DHT22;64375;51.540;7.364;2023-03-30T15:32:14;19.50;87.30
4908;DHT22;64375;51.540;7.364;2023-03-30T15:35:00;19.50;87.20
4908;DHT22;64375;51.540;7.364;2023-03-30T15:37:34;19.50;87.90
4908;DHT22;64375;51.540;7.364;2023-03-30T15:40:05;19.50;88.50
4908;DHT22;64375;51.540;7.364;2023-03-30T15:43:10;19.70;88.20
4908;DHT22;64375;51.540;7.364;2023-03-30T15:45:45;19.80;89.10
4908;DHT22;64375;51.540;7.364;2023-03-30T15:48:20;20.00;88.20
4908;DHT22;64375;51.540;7.364;2023-03-30T15:51:01;20.10;88.00
4908;DHT22;64375;51.540;7.364;2023-03-30T15:53:41;20.10;88.00
4908;DHT22;64375;51.540;7.364;2023-03-30T15:56:19;20.10;88.00
4908;DHT22;64375;51.540;7.364;2023-03-30T15:58:50;20.20;88.00
4908;DHT22;64375;51.540;7.364;2023-03-30T16:01:21;20.20;87.40
4908;DHT22;64375;51.540;7.364;2023-03-30T16:03:53;20.10;86.90
4908;DHT22;64375;51.540;7.364;2023-03-30T16:06:22;20.20;88.20
4908;DHT22;64375;51.540;7.364;2023-03-30T16:08:50;20.10;88.40
4908;DHT22;64375;51.540;7.364;2023-03-30T16:11:30;20.10;88.60
4908;DHT22;64375;51.540;7.364;2023-03-30T16:13:59;20.10;88.60
4908;DHT22;64375;51.540;7.364;2023-03-30T16:16:30;20.20;88.70
4908;DHT22;64375;51.540;7.364;2023-03-30T16:19:12;20.30;88.20
4908;DHT22;64375;51.540;7.364;2023-03-30T16:21:46;20.00;88.90
4908;DHT22;64375;51.540;7.364;2023-03-30T16:24:14;20.10;89.10
4908;DHT22;64375;51.540;7.364;2023-03-30T16:26:42;20.10;89.30
4908;DHT22;64375;51.540;7.364;2023-03-30T16:29:18;20.20;89.20
4908;DHT22;64375;51.540;7.364;2023-03-30T16:31:47;20.30;88.40
4908;DHT22;64375;51.540;7.364;2023-03-30T16:34:15;20.30;88.50
4908;DHT22;64375;51.540;7.364;2023-03-30T16:36:43;20.30;88.50
4908;DHT22;64375;51.540;7.364;2023-03-30T16:39:15;20.40;88.30
4908;DHT22;64375;51.540;7.364;2023-03-30T16:41:47;20.50;88.00
4908;DHT22;64375;51.540;7.364;2023-03-30T16:44:20;20.50;87.90
4908;DHT22;64375;51.540;7.364;2023-03-30T16:46:49;20.50;87.70
4908;DHT22;64375;51.540;7.364;2023-03-30T16:49:22;20.60;87.70
4908;DHT22;64375;51.540;7.364;2023-03-30T16:51:53;20.60;87.50